Werribee, Victoria

4:41 PM AEST on August 29, 2015 (GMT +1000)
Werribee Weather | | Change Station
CLOSE
Current Station
Personal Weather Station
Location: Werribee, Victoria
Elevation: 66 ft
Nearby Weather Stations

Elev 66 ft 37.91 °S, 144.67 °E | Updated 16 seconds ago

Mostly Cloudy
Mostly Cloudy
55.2 °F
Feels Like 55.2 °F
N
-
Wind Variable Wind from North
Gusts 0.0 mph

Today
High -- | Low -- °F
--% Chance of Precip.
Yesterday
High -- | Low -- °F
Precip. -- in
6:48 AM 5:57 PM
Full, 100% visible
Pressure 30.24 in
Visibility 6.2 miles
Clouds Few 1900 ft
Mostly Cloudy 2500 ft
Mostly Cloudy 3500 ft
Dew Point 46 °F
Humidity 72%
Rainfall 0.02 in
Snow Depth Not available.
UV 1 out of 12
Pollen Not available.
Air Quality Not available.
Flu Activity Not available.
METAR YMML 290630Z 21015KT 9999 FEW019 BKN025 BKN035 10/06 Q1024 INTER 0630/0900 4000 SHRA BKN010
Pressure 30.24 in
Visibility 6.2 miles
Clouds Few 1900 ft
Mostly Cloudy 2500 ft
Mostly Cloudy 3500 ft
Dew Point 46 °F
Humidity 72%
Rainfall 0.02 in
Snow Depth Not available.
UV 1 out of 12
Pollen Not available.
Air Quality Not available.
Flu Activity Not available.
METAR YMML 290630Z 21015KT 9999 FEW019 BKN025 BKN035 10/06 Q1024 INTER 0630/0900 4000 SHRA BKN010

10-Day Weather Forecast

×

Almanac

Astronomy

Aug. 29, 2015 Rise Set
Actual Time
Civil Twilight
Nautical Twilight
Astronomical Twilight
Moon
Length of Visible Light
Length of Day
Tomorrow will be .
, % of the Moon is Illuminated

Today's Extremes

Country Highs Country Lows

Community

WunderPhotos

Upload Photos

1,850,632 photos uploaded!

WunderBlogs® & News

Nearby

Air Quality

  Air Quality AQ Index Pollutant
Not available.

Snow Depth

Station Depth Elevation

Earthquake Activity

City Distance Mag. Time & Date
Minimum magnitude displayed is 2.5.

Coastal Water Temperatures

Place Temperature

Stations

Nearby Weather Stations

Station Location Temp. Windchill Dew Point Humidity Wind Precip. Elev Updated Type